Trans Holm — 9HA4434 — position and weather

sailwx.info

Track history (hours):
 
Tides and Currents Weather Stations Pressure Air Temp Water Temp Dewpoint Dewpoint Depression Visibility Wind Speed Wind Dir Waves Ship Positions

Trans Holm

Last reported at 2018-Jan-23 17:38 UTC. Time now 2018-Jan-24 06:00 UTC.
Position N 35°59' W 005°16'.

Length 102 m; draft 7.6 m.

Type: Ship (hazmat cat B). MMSI: 249913000.

Date/timePositionNaut miles runAvg speedWind from/ knotsBaromVisibWave heightAir tempDewpointWater temp
2018-Jan-23 17:38N 35°59' W 005°16'216.2
2018-Jan-23 17:31N 35°59' W 005°18'815.5
2018-Jan-23 16:59N 35°57' W 005°28'15513.5
2018-Jan-23 05:31N 36°22' W 008°37'013.4
2018-Jan-23 05:30N 36°22' W 008°38'4212.9
2018-Jan-23 02:16N 36°36' W 009°27'413.4
2018-Jan-23 01:59N 36°39' W 009°30'613.3
2018-Jan-23 01:30N 36°43' W 009°35'3013.9
2018-Jan-22 23:20N 37°12' W 009°45'514.1
2018-Jan-22 23:00N 37°17' W 009°46'714.1
2018-Jan-22 22:30N 37°24' W 009°47'714.4
2018-Jan-22 22:00N 37°31' W 009°50'814.1
2018-Jan-22 21:27N 37°38' W 009°52'614.1
2018-Jan-22 21:01N 37°44' W 009°54'1014.1
2018-Jan-22 20:19N 37°54' W 009°58'613.7
2018-Jan-22 19:53N 37°60' W 009°60'713.8
2018-Jan-22 19:24N 38°06' W 010°01'613.9
2018-Jan-22 19:00N 38°11' W 010°03'713.8
2018-Jan-22 18:30N 38°18' W 010°05'714.0
2018-Jan-22 18:00N 38°25' W 010°07'713.8
2018-Jan-22 17:30N 38°32' W 010°09'713.7
2018-Jan-22 17:00N 38°38' W 010°11'714.1
2018-Jan-22 16:30N 38°45' W 010°13'713.7
2018-Jan-22 16:00N 38°52' W 010°13'713.6
2018-Jan-22 15:30N 38°59' W 010°13'713.6
2018-Jan-22 15:00N 39°06' W 010°13'713.6
2018-Jan-22 14:30N 39°12' W 010°13'713.7
2018-Jan-22 14:00N 39°19' W 010°12'55111.9
2018-Jan-20 15:48N 48°06' W 006°25'8 8.9
2018-Jan-20 14:53N 48°13' W 006°20'149 9.2
2018-Jan-19 22:49N 49°49' W 003°26'311.3
2018-Jan-19 22:31N 49°51' W 003°22'610.9
2018-Jan-19 21:59N 49°53' W 003°14'510.3
2018-Jan-19 21:28N 49°56' W 003°07'5 9.9
2018-Jan-19 21:00N 49°58' W 003°01'510.1
2018-Jan-19 20:30N 50°01' W 002°54'510.1
2018-Jan-19 20:00N 50°02' W 002°46'810.3
2018-Jan-19 19:16N 50°03' W 002°35'9313.0
2018-Jan-19 12:06N 50°29' W 000°14'111.2
2018-Jan-19 12:00N 50°29' W 000°13'511.0
2018-Jan-19 11:30N 50°30' W 000°04'510.4
2018-Jan-19 11:00N 50°32' E 000°03'510.2
2018-Jan-19 10:30N 50°33' E 000°11'5 9.6
2018-Jan-19 10:00N 50°35' E 000°18'5 9.8
2018-Jan-19 09:30N 50°36' E 000°26'510.4
2018-Jan-19 09:00N 50°37' E 000°34'611.1
2018-Jan-19 08:30N 50°40' E 000°41'612.2
2018-Jan-19 08:00N 50°44' E 000°48'713.1
2018-Jan-19 07:30N 50°48' E 000°57'1213.6
2018-Jan-19 06:36N 50°56' E 001°12'513.6
2018-Jan-19 06:12N 50°59' E 001°18'313.6
2018-Jan-19 06:00N 51°01' E 001°21'612.7
2018-Jan-19 05:30N 51°05' E 001°29'611.9
2018-Jan-19 05:00N 51°09' E 001°36'611.1
2018-Jan-19 04:30N 51°12' E 001°43'510.7
2018-Jan-19 04:00N 51°17' E 001°48'510.0
2018-Jan-19 03:30N 51°21' E 001°53'5 9.8
2018-Jan-19 03:00N 51°25' E 001°58'5 9.2
2018-Jan-19 02:30N 51°25' E 002°05'510.8
2018-Jan-19 02:00N 51°22' E 002°13'5 9.4
2018-Jan-19 01:30N 51°21' E 002°20'5 9.8
2018-Jan-19 00:59N 51°22' E 002°28'610.0
2018-Jan-19 00:21N 51°23' E 002°38'4 9.5
2018-Jan-18 23:57N 51°24' E 002°44'2 5.0
2018-Jan-18 23:28N 51°22' E 002°47'4 8.4
2018-Jan-18 22:59N 51°22' E 002°53'611.8
2018-Jan-18 22:30N 51°24' E 003°02'612.2
2018-Jan-18 22:00N 51°24' E 003°11'612.4
2018-Jan-18 21:30N 51°25' E 003°21'713.1
2018-Jan-18 21:00N 51°26' E 003°32'510.1
2018-Jan-18 20:30N 51°27' E 003°40'612.8
2018-Jan-18 20:00N 51°22' E 003°46'713.3
2018-Jan-18 19:30N 51°23' E 003°57'3 6.9
2018-Jan-18 19:00N 51°23' E 004°02'612.8
2018-Jan-18 18:30N 51°24' E 004°13'612.2
2018-Jan-18 18:00N 51°18' E 004°17'2 4.8
2018-Jan-18 17:31N 51°16' E 004°17'0 0.5
2018-Jan-18 17:00N 51°16' E 004°16'2 3.8
2018-Jan-18 16:30N 51°17' E 004°14'0 0.3
2018-Jan-18 16:00N 51°17' E 004°14'0 0.0
2018-Jan-18 15:29N 51°17' E 004°14'0 0.0
2018-Jan-18 14:44N 51°17' E 004°14'0 0.0
2018-Jan-18 14:29N 51°17' E 004°14'0 0.0
2018-Jan-18 13:53N 51°17' E 004°14'0 0.0
2018-Jan-18 13:26N 51°17' E 004°14'0 0.0
2018-Jan-18 12:02N 51°17' E 004°14'0 0.0
2018-Jan-18 11:35N 51°17' E 004°14'0 0.0
2018-Jan-18 11:14N 51°17' E 004°14'0 0.0
2018-Jan-18 10:53N 51°17' E 004°14'0 0.0
2018-Jan-18 10:29N 51°17' E 004°14'0 0.0
2018-Jan-18 09:53N 51°17' E 004°14'0 0.0
2018-Jan-18 09:29N 51°17' E 004°14'0 0.0
2018-Jan-18 08:59N 51°17' E 004°14'0 0.0
2018-Jan-18 08:29N 51°17' E 004°14'0 0.0
2018-Jan-18 07:56N 51°17' E 004°14'0 0.0
2018-Jan-18 07:20N 51°17' E 004°14'0 0.0
2018-Jan-18 06:50N 51°17' E 004°14'0 0.0
2018-Jan-18 06:20N 51°17' E 004°14'0 0.0
2018-Jan-18 05:56N 51°17' E 004°14'0 0.0
2018-Jan-18 05:29N 51°17' E 004°14'0 0.0
2018-Jan-18 04:59N 51°17' E 004°14'0 0.0
2018-Jan-18 04:29N 51°17' E 004°14'0 0.0
2018-Jan-18 03:56N 51°17' E 004°14'0 0.0
2018-Jan-18 03:29N 51°17' E 004°14'0 0.0
2018-Jan-18 02:59N 51°17' E 004°14'0 0.0
2018-Jan-18 02:20N 51°17' E 004°14'0 0.0
2018-Jan-18 01:59N 51°17' E 004°14'0 0.0
2018-Jan-18 01:29N 51°17' E 004°14'0 0.0
2018-Jan-18 00:59N 51°17' E 004°14'0 0.0
2018-Jan-17 23:59N 51°17' E 004°14'0 0.0
2018-Jan-17 23:56N 51°17' E 004°14'  
Track history (hours):
 
Tides and Currents Weather Stations Pressure Air Temp Water Temp Dewpoint Dewpoint Depression Visibility Wind Speed Wind Dir Waves Ship Positions

Trans Holm

Last reported at 2018-Jan-23 17:38 UTC. Time now 2018-Jan-24 06:00 UTC.
Position N 35°59' W 005°16'.

Length 102 m; draft 7.6 m.

Type: Ship (hazmat cat B). MMSI: 249913000.

Date/timePositionNaut miles runAvg speedWind from/ knotsBaromVisibWave heightAir tempDewpointWater temp
2018-Jan-23 17:38N 35°59' W 005°16'216.2
2018-Jan-23 17:31N 35°59' W 005°18'815.5
2018-Jan-23 16:59N 35°57' W 005°28'15513.5
2018-Jan-23 05:31N 36°22' W 008°37'013.4
2018-Jan-23 05:30N 36°22' W 008°38'4212.9
2018-Jan-23 02:16N 36°36' W 009°27'413.4
2018-Jan-23 01:59N 36°39' W 009°30'613.3
2018-Jan-23 01:30N 36°43' W 009°35'3013.9
2018-Jan-22 23:20N 37°12' W 009°45'514.1
2018-Jan-22 23:00N 37°17' W 009°46'714.1
2018-Jan-22 22:30N 37°24' W 009°47'714.4
2018-Jan-22 22:00N 37°31' W 009°50'814.1
2018-Jan-22 21:27N 37°38' W 009°52'614.1
2018-Jan-22 21:01N 37°44' W 009°54'1014.1
2018-Jan-22 20:19N 37°54' W 009°58'613.7
2018-Jan-22 19:53N 37°60' W 009°60'713.8
2018-Jan-22 19:24N 38°06' W 010°01'613.9
2018-Jan-22 19:00N 38°11' W 010°03'713.8
2018-Jan-22 18:30N 38°18' W 010°05'714.0
2018-Jan-22 18:00N 38°25' W 010°07'713.8
2018-Jan-22 17:30N 38°32' W 010°09'713.7
2018-Jan-22 17:00N 38°38' W 010°11'714.1
2018-Jan-22 16:30N 38°45' W 010°13'713.7
2018-Jan-22 16:00N 38°52' W 010°13'713.6
2018-Jan-22 15:30N 38°59' W 010°13'713.6
2018-Jan-22 15:00N 39°06' W 010°13'713.6
2018-Jan-22 14:30N 39°12' W 010°13'713.7
2018-Jan-22 14:00N 39°19' W 010°12'55111.9
2018-Jan-20 15:48N 48°06' W 006°25'8 8.9
2018-Jan-20 14:53N 48°13' W 006°20'149 9.2
2018-Jan-19 22:49N 49°49' W 003°26'311.3
2018-Jan-19 22:31N 49°51' W 003°22'610.9
2018-Jan-19 21:59N 49°53' W 003°14'510.3
2018-Jan-19 21:28N 49°56' W 003°07'5 9.9
2018-Jan-19 21:00N 49°58' W 003°01'510.1
2018-Jan-19 20:30N 50°01' W 002°54'510.1
2018-Jan-19 20:00N 50°02' W 002°46'810.3
2018-Jan-19 19:16N 50°03' W 002°35'9313.0
2018-Jan-19 12:06N 50°29' W 000°14'111.2
2018-Jan-19 12:00N 50°29' W 000°13'511.0
2018-Jan-19 11:30N 50°30' W 000°04'510.4
2018-Jan-19 11:00N 50°32' E 000°03'510.2
2018-Jan-19 10:30N 50°33' E 000°11'5 9.6
2018-Jan-19 10:00N 50°35' E 000°18'5 9.8
2018-Jan-19 09:30N 50°36' E 000°26'510.4
2018-Jan-19 09:00N 50°37' E 000°34'611.1
2018-Jan-19 08:30N 50°40' E 000°41'612.2
2018-Jan-19 08:00N 50°44' E 000°48'713.1
2018-Jan-19 07:30N 50°48' E 000°57'1213.6
2018-Jan-19 06:36N 50°56' E 001°12'513.6
2018-Jan-19 06:12N 50°59' E 001°18'313.6
2018-Jan-19 06:00N 51°01' E 001°21'612.7
2018-Jan-19 05:30N 51°05' E 001°29'611.9
2018-Jan-19 05:00N 51°09' E 001°36'611.1
2018-Jan-19 04:30N 51°12' E 001°43'510.7
2018-Jan-19 04:00N 51°17' E 001°48'510.0
2018-Jan-19 03:30N 51°21' E 001°53'5 9.8
2018-Jan-19 03:00N 51°25' E 001°58'5 9.2
2018-Jan-19 02:30N 51°25' E 002°05'510.8
2018-Jan-19 02:00N 51°22' E 002°13'5 9.4
2018-Jan-19 01:30N 51°21' E 002°20'5 9.8
2018-Jan-19 00:59N 51°22' E 002°28'610.0
2018-Jan-19 00:21N 51°23' E 002°38'4 9.5
2018-Jan-18 23:57N 51°24' E 002°44'2 5.0
2018-Jan-18 23:28N 51°22' E 002°47'4 8.4
2018-Jan-18 22:59N 51°22' E 002°53'611.8
2018-Jan-18 22:30N 51°24' E 003°02'612.2
2018-Jan-18 22:00N 51°24' E 003°11'612.4
2018-Jan-18 21:30N 51°25' E 003°21'713.1
2018-Jan-18 21:00N 51°26' E 003°32'510.1
2018-Jan-18 20:30N 51°27' E 003°40'612.8
2018-Jan-18 20:00N 51°22' E 003°46'713.3
2018-Jan-18 19:30N 51°23' E 003°57'3 6.9
2018-Jan-18 19:00N 51°23' E 004°02'612.8
2018-Jan-18 18:30N 51°24' E 004°13'612.2
2018-Jan-18 18:00N 51°18' E 004°17'2 4.8
2018-Jan-18 17:31N 51°16' E 004°17'0 0.5
2018-Jan-18 17:00N 51°16' E 004°16'2 3.8
2018-Jan-18 16:30N 51°17' E 004°14'0 0.3
2018-Jan-18 16:00N 51°17' E 004°14'0 0.0
2018-Jan-18 15:29N 51°17' E 004°14'0 0.0
2018-Jan-18 14:44N 51°17' E 004°14'0 0.0
2018-Jan-18 14:29N 51°17' E 004°14'0 0.0
2018-Jan-18 13:53N 51°17' E 004°14'0 0.0
2018-Jan-18 13:26N 51°17' E 004°14'0 0.0
2018-Jan-18 12:02N 51°17' E 004°14'0 0.0
2018-Jan-18 11:35N 51°17' E 004°14'0 0.0
2018-Jan-18 11:14N 51°17' E 004°14'0 0.0
2018-Jan-18 10:53N 51°17' E 004°14'0 0.0
2018-Jan-18 10:29N 51°17' E 004°14'0 0.0
2018-Jan-18 09:53N 51°17' E 004°14'0 0.0
2018-Jan-18 09:29N 51°17' E 004°14'0 0.0
2018-Jan-18 08:59N 51°17' E 004°14'0 0.0
2018-Jan-18 08:29N 51°17' E 004°14'0 0.0
2018-Jan-18 07:56N 51°17' E 004°14'0 0.0
2018-Jan-18 07:20N 51°17' E 004°14'0 0.0
2018-Jan-18 06:50N 51°17' E 004°14'0 0.0
2018-Jan-18 06:20N 51°17' E 004°14'0 0.0
2018-Jan-18 05:56N 51°17' E 004°14'0 0.0
2018-Jan-18 05:29N 51°17' E 004°14'0 0.0
2018-Jan-18 04:59N 51°17' E 004°14'0 0.0
2018-Jan-18 04:29N 51°17' E 004°14'0 0.0
2018-Jan-18 03:56N 51°17' E 004°14'0 0.0
2018-Jan-18 03:29N 51°17' E 004°14'0 0.0
2018-Jan-18 02:59N 51°17' E 004°14'0 0.0
2018-Jan-18 02:20N 51°17' E 004°14'0 0.0
2018-Jan-18 01:59N 51°17' E 004°14'0 0.0
2018-Jan-18 01:29N 51°17' E 004°14'0 0.0
2018-Jan-18 00:59N 51°17' E 004°14'0 0.0
2018-Jan-17 23:59N 51°17' E 004°14'0 0.0
2018-Jan-17 23:56N 51°17' E 004°14'  

Dump ship's entire track history